Time;durP1;ratioP1;P1;durP2;ratioP2;P2;SDS_P1;SDS_P2;PMS_P1;PMS_P2;Temp;Humidity;BMP_temperature;BMP_pressure;BME280_temperature;BME280_humidity;BME280_pressure;Samples;Min_cycle;Max_cycle;Signal;HPM_P1;HPM_P2
2023/06/10 00:03:12;;;;;;;;;;;22.20;37.00;;;21.53;31.17;101216.38;12252864;19;19915;-84
2023/06/10 00:07:13;;;;;;;;;;;22.20;36.00;;;21.51;31.49;101213.00;12259625;19;19937;-84
2023/06/10 00:11:15;;;;;;;;;;;22.10;35.10;;;21.39;31.35;101192.91;12255949;19;20254;-84
2023/06/10 00:15:16;;;;;;;;;;;22.10;36.30;;;21.46;31.32;101214.44;12258541;19;19919;-85
2023/06/10 00:19:18;;;;;;;;;;;22.00;35.90;;;21.31;31.83;101201.56;12253849;19;19922;-84
2023/06/10 00:23:21;;;;;;;;;;;22.00;36.70;;;21.13;31.63;101171.41;12252457;19;19946;-84
2023/06/10 00:27:23;;;;;;;;;;;21.90;35.90;;;21.17;31.48;101194.03;12254498;19;19922;-84
2023/06/10 00:31:28;;;;;;;;;;;21.80;36.60;;;21.23;31.83;101203.28;12250946;19;19922;-84
2023/06/10 00:35:30;;;;;;;;;;;21.80;36.60;;;21.10;31.84;101193.78;12252630;19;19915;-84
2023/06/10 00:39:31;;;;;;;;;;;21.80;36.30;;;21.07;31.69;101186.09;12253437;19;20343;-84
2023/06/10 00:43:33;;;;;;;;;;;21.80;35.60;;;21.13;31.81;101213.91;12250936;19;19922;-84
2023/06/10 00:47:35;;;;;;;;;;;21.70;35.60;;;20.93;31.83;101174.09;12248836;19;19931;-84
2023/06/10 00:51:39;;;;;;;;;;;21.70;35.50;;;21.03;31.88;101200.63;12247790;19;20401;-83
2023/06/10 00:55:41;;;;;;;;;;;21.70;35.70;;;21.09;31.90;101213.34;12249307;19;19946;-84
2023/06/10 00:59:47;;;;;;;;;;;21.70;36.10;;;21.05;32.24;101213.75;12249912;19;19957;-84
2023/06/10 01:03:49;;;;;;;;;;;21.60;35.70;;;21.06;31.88;101218.91;12245212;19;20289;-84
2023/06/10 01:08:10;;;;;;;;;;;21.60;35.60;;;20.97;32.19;101214.47;12250892;19;19926;-84
2023/06/10 01:12:37;;;;;;;;;;;21.60;35.60;;;20.90;32.29;101219.50;12247401;19;19915;-83
2023/06/10 01:16:40;;;;;;;;;;;21.50;35.60;;;20.97;32.01;101235.69;12247816;19;19921;-84
2023/06/10 01:20:44;;;;;;;;;;;21.50;36.20;;;20.88;32.43;101228.59;12246506;19;19930;-84
2023/06/10 01:24:50;;;;;;;;;;;21.50;36.00;;;20.85;32.67;101226.22;12254790;19;19983;-85
2023/06/10 01:28:57;;;;;;;;;;;21.50;35.50;;;20.81;32.46;101215.00;12259421;19;19915;-85
2023/06/10 01:32:59;;;;;;;;;;;21.50;36.10;;;20.77;32.42;101211.81;12260475;19;19918;-85
2023/06/10 01:37:02;;;;;;;;;;;21.50;35.60;;;20.82;32.50;101231.78;12260925;19;19914;-85
2023/06/10 01:41:05;;;;;;;;;;;21.40;36.20;;;20.67;32.31;101210.97;12258910;19;19915;-85
2023/06/10 01:45:08;;;;;;;;;;;21.40;35.50;;;20.75;32.63;101229.69;12258452;19;19935;-84
2023/06/10 01:49:10;;;;;;;;;;;21.40;35.90;;;20.72;32.61;101229.97;12259658;19;19938;-85
2023/06/10 01:53:12;;;;;;;;;;;21.30;35.90;;;20.68;32.56;101231.22;12251872;19;19919;-84
2023/06/10 01:57:13;;;;;;;;;;;21.30;35.30;;;20.67;32.92;101234.84;12256633;19;19954;-84
2023/06/10 02:01:15;;;;;;;;;;;21.20;36.10;;;20.59;32.95;101233.88;12252038;19;19987;-84
2023/06/10 02:05:17;;;;;;;;;;;21.20;36.10;;;20.54;32.99;101228.97;12255860;19;20432;-84
2023/06/10 02:09:18;;;;;;;;;;;21.20;36.60;;;20.46;33.09;101220.81;12249275;19;19922;-84
2023/06/10 02:13:20;;;;;;;;;;;21.10;35.70;;;20.52;32.71;101236.19;12249745;19;19915;-85
2023/06/10 02:17:28;;;;;;;;;;;21.10;35.60;;;20.38;33.15;101215.34;12252505;19;19930;-84
2023/06/10 02:21:29;;;;;;;;;;;21.10;35.70;;;20.46;33.22;101239.38;12252519;19;19937;-84
2023/06/10 02:25:30;;;;;;;;;;;21.10;35.90;;;20.13;33.24;101184.88;12252726;19;19918;-85
2023/06/10 02:29:34;;;;;;;;;;;21.10;36.60;;;20.23;32.89;101215.75;12249101;19;19927;-84
2023/06/10 02:33:40;;;;;;;;;;;21.00;36.30;;;20.27;33.19;101237.53;12254399;19;19907;-84
2023/06/10 02:37:43;;;;;;;;;;;21.00;36.20;;;20.25;33.23;101237.69;12262324;19;19929;-84
2023/06/10 02:41:45;;;;;;;;;;;20.90;36.00;;;20.04;33.33;101210.38;12259870;19;19919;-84
2023/06/10 02:45:49;;;;;;;;;;;20.90;35.90;;;20.20;33.56;101242.53;12259768;19;19915;-85
2023/06/10 02:49:52;;;;;;;;;;;20.90;36.00;;;20.10;33.37;101223.94;12257996;19;20411;-85
2023/06/10 02:53:54;;;;;;;;;;;20.80;36.50;;;20.17;33.42;101241.94;12255808;19;19922;-84
2023/06/10 02:57:55;;;;;;;;;;;20.80;36.30;;;20.07;33.47;101236.63;12257846;19;19911;-84
2023/06/10 03:02:01;;;;;;;;;;;20.80;36.80;;;20.02;33.30;101233.53;12256360;19;19935;-83
2023/06/10 03:06:05;;;;;;;;;;;20.70;36.30;;;19.89;33.64;101228.44;12259350;19;19933;-84
2023/06/10 03:10:08;;;;;;;;;;;20.70;36.60;;;19.93;33.66;101245.78;12259746;19;19987;-84
2023/06/10 03:14:12;;;;;;;;;;;20.60;36.40;;;19.67;33.89;101197.66;12254663;19;19918;-84
2023/06/10 03:18:14;;;;;;;;;;;20.60;36.70;;;19.76;33.88;101231.31;12259930;19;19911;-84
2023/06/10 03:22:16;;;;;;;;;;;20.50;37.00;;;19.77;33.67;101240.97;12256667;19;19918;-84
2023/06/10 03:26:35;;;;;;;;;;;20.40;36.50;;;19.74;33.83;101241.22;12260355;19;20325;-84
2023/06/10 03:30:37;;;;;;;;;;;20.40;36.60;;;19.48;34.06;101205.50;12256004;19;20322;-84
2023/06/10 03:34:40;;;;;;;;;;;20.40;36.80;;;19.69;33.75;101247.91;12254762;19;20262;-84
2023/06/10 03:38:43;;;;;;;;;;;20.40;38.00;;;19.57;34.07;101233.84;12258310;19;19915;-84
2023/06/10 03:42:45;;;;;;;;;;;20.30;37.30;;;19.60;34.21;101245.00;12252872;19;19911;-84
2023/06/10 03:46:49;;;;;;;;;;;20.30;37.60;;;19.61;34.24;101256.47;12257995;19;19923;-85
2023/06/10 03:50:51;;;;;;;;;;;20.30;37.10;;;19.35;34.07;101217.13;12257108;19;20364;-84
2023/06/10 03:54:55;;;;;;;;;;;20.30;37.30;;;19.51;34.26;101252.91;12254745;19;19926;-84
2023/06/10 03:58:58;;;;;;;;;;;20.20;37.00;;;19.39;34.13;101229.13;12264628;19;19930;-85
2023/06/10 04:02:59;;;;;;;;;;;20.20;37.40;;;19.52;34.10;101259.88;12258630;19;19935;-85
2023/06/10 04:07:13;;;;;;;;;;;20.20;37.80;;;19.51;34.42;101263.50;12262298;19;19939;-85
2023/06/10 04:11:15;;;;;;;;;;;20.20;37.00;;;19.52;34.42;101267.81;12261496;19;20342;-84
2023/06/10 04:15:17;;;;;;;;;;;20.20;37.00;;;19.52;34.44;101266.00;12263810;19;19918;-84
2023/06/10 04:19:19;;;;;;;;;;;20.20;37.40;;;19.54;34.47;101282.63;12260094;19;19945;-85
2023/06/10 04:23:22;;;;;;;;;;;20.20;36.90;;;19.56;34.60;101283.34;12259166;19;20349;-84
2023/06/10 04:27:24;;;;;;;;;;;20.20;37.80;;;19.43;34.69;101259.69;12261502;19;20260;-84
2023/06/10 04:31:26;;;;;;;;;;;20.30;37.00;;;19.54;34.72;101271.19;12261662;19;19911;-84
2023/06/10 04:35:28;;;;;;;;;;;20.30;37.70;;;19.62;34.82;101284.63;12262637;19;19974;-85
2023/06/10 04:39:33;;;;;;;;;;;20.30;37.10;;;19.54;34.89;101276.50;12261157;19;19911;-84
2023/06/10 04:43:36;;;;;;;;;;;20.30;37.30;;;19.58;34.63;101286.72;12254000;19;19921;-85
2023/06/10 04:47:40;;;;;;;;;;;20.30;37.10;;;19.66;34.98;101286.09;12260497;19;19918;-84
2023/06/10 04:51:42;;;;;;;;;;;20.40;36.90;;;19.73;34.98;101291.69;12256695;19;20329;-85
2023/06/10 04:55:44;;;;;;;;;;;20.40;37.60;;;19.72;35.13;101277.63;12253924;19;19931;-84
2023/06/10 04:59:47;;;;;;;;;;;20.50;39.00;;;19.85;35.14;101296.81;12259735;19;19926;-85
2023/06/10 05:03:49;;;;;;;;;;;20.60;37.60;;;19.92;35.21;101306.88;12254240;19;20080;-84
2023/06/10 05:07:50;;;;;;;;;;;20.70;36.90;;;19.91;35.38;101298.09;12259568;19;19922;-85
2023/06/10 05:11:53;;;;;;;;;;;20.80;37.70;;;19.95;35.30;101301.31;12259059;19;19915;-84
2023/06/10 05:15:54;;;;;;;;;;;20.80;37.80;;;19.94;35.55;101289.03;12255426;19;19998;-85
2023/06/10 05:19:56;;;;;;;;;;;20.80;37.90;;;19.94;35.67;101295.16;12255280;19;19936;-85
2023/06/10 05:23:58;;;;;;;;;;;20.80;37.70;;;19.86;35.60;101274.63;12256270;19;19911;-85
2023/06/10 05:27:59;;;;;;;;;;;20.90;38.30;;;20.10;35.56;101292.03;12256137;19;19948;-86
2023/06/10 05:32:03;;;;;;;;;;;21.00;38.70;;;20.04;35.45;101264.25;12258983;19;20252;-85
2023/06/10 05:36:05;;;;;;;;;;;21.10;37.90;;;20.34;35.94;101287.25;12256768;19;20254;-85
2023/06/10 05:40:07;;;;;;;;;;;21.30;38.50;;;20.60;35.59;101308.00;12259753;19;20020;-87
2023/06/10 05:44:09;;;;;;;;;;;21.40;41.50;;;20.75;36.03;101311.13;12251667;19;19922;-85
2023/06/10 05:48:11;;;;;;;;;;;21.50;40.20;;;20.87;35.88;101304.72;12258213;19;19918;-83
2023/06/10 05:52:12;;;;;;;;;;;21.70;43.00;;;20.99;36.17;101292.19;12252211;19;19911;-83
2023/06/10 05:56:14;;;;;;;;;;;21.90;43.20;;;21.18;36.21;101302.81;12257145;19;20286;-83
2023/06/10 06:00:16;;;;;;;;;;;22.00;42.00;;;21.34;36.17;101314.69;12256460;19;20332;-83
2023/06/10 06:04:18;;;;;;;;;;;22.20;42.40;;;21.42;36.35;101305.06;12244039;19;19910;-83
2023/06/10 06:08:20;;;;;;;;;;;22.30;41.60;;;21.62;36.62;101316.50;12255765;19;19986;-81
2023/06/10 06:12:21;;;;;;;;;;;22.50;43.00;;;21.78;36.75;101313.25;12257713;19;19911;-82
2023/06/10 06:16:23;;;;;;;;;;;22.70;41.00;;;21.91;36.32;101309.47;12261554;19;19915;-83
2023/06/10 06:20:24;;;;;;;;;;;22.80;41.10;;;22.12;36.53;101319.91;12259281;19;19911;-82
2023/06/10 06:24:26;;;;;;;;;;;23.00;41.00;;;22.29;36.36;101329.81;12258913;19;19914;-82
2023/06/10 06:28:29;;;;;;;;;;;23.20;40.80;;;22.41;36.78;101317.97;12258732;19;19931;-81
2023/06/10 06:32:30;;;;;;;;;;;23.30;40.40;;;22.54;36.82;101321.13;12255656;19;19929;-81
2023/06/10 06:36:32;;;;;;;;;;;23.50;39.50;;;22.67;36.62;101323.44;12257439;19;19941;-81
2023/06/10 06:40:34;;;;;;;;;;;23.60;39.30;;;22.80;36.56;101322.25;12258551;19;19930;-81
2023/06/10 06:44:36;;;;;;;;;;;23.80;38.50;;;22.97;36.49;101332.13;12259119;19;19923;-82
2023/06/10 06:48:37;;;;;;;;;;;24.00;38.90;;;23.15;36.38;101340.13;12260567;19;19963;-82
2023/06/10 06:52:47;;;;;;;;;;;24.10;40.10;;;23.26;36.59;101329.25;12250245;19;20269;-82
2023/06/10 06:56:53;;;;;;;;;;;24.30;39.00;;;23.40;36.84;101325.19;12257418;19;19974;-82
2023/06/10 07:00:55;;;;;;;;;;;24.50;39.00;;;23.55;36.33;101334.31;12254556;19;20325;-82
2023/06/10 07:04:58;;;;;;;;;;;24.60;40.90;;;23.85;36.93;101354.41;12255559;19;20369;-81
2023/06/10 07:09:00;;;;;;;;;;;24.80;41.20;;;23.95;36.86;101357.00;12254403;19;19937;-83
2023/06/10 07:13:02;;;;;;;;;;;24.90;41.20;;;24.07;36.58;101350.38;12253595;19;20335;-81
2023/06/10 07:17:04;;;;;;;;;;;25.10;39.30;;;24.23;36.46;101351.47;12256779;19;19915;-81
2023/06/10 07:21:05;;;;;;;;;;;25.20;38.60;;;24.32;36.67;101352.34;12253921;19;19927;-81
2023/06/10 07:25:07;;;;;;;;;;;25.30;38.30;;;24.44;36.84;101361.81;12256625;19;20027;-81
2023/06/10 07:29:08;;;;;;;;;;;25.40;37.80;;;24.61;36.58;101368.88;12256008;19;20329;-83
2023/06/10 07:33:10;;;;;;;;;;;25.60;38.50;;;24.62;36.86;101343.81;12250959;19;19922;-82
2023/06/10 07:37:12;;;;;;;;;;;25.70;38.30;;;24.78;36.60;101366.25;12258302;19;20277;-83
2023/06/10 07:41:14;;;;;;;;;;;25.90;39.30;;;24.98;36.63;101373.00;12257824;19;19922;-83
2023/06/10 07:45:15;;;;;;;;;;;26.00;38.80;;;25.08;36.39;101371.00;12258141;19;19929;-82
2023/06/10 07:49:16;;;;;;;;;;;26.10;38.60;;;25.17;36.39;101355.88;12258764;19;19919;-82
2023/06/10 07:53:18;;;;;;;;;;;26.20;38.50;;;25.50;36.63;101380.78;12257318;19;19944;-83
2023/06/10 07:57:20;;;;;;;;;;;26.40;37.90;;;25.36;36.44;101319.97;12255084;19;20010;-82
2023/06/10 08:01:23;;;;;;;;;;;26.60;38.90;;;25.88;36.61;101377.66;12251415;19;19907;-82
2023/06/10 08:05:24;;;;;;;;;;;26.80;38.70;;;25.97;36.57;101377.44;12254051;19;19915;-81
2023/06/10 08:09:26;;;;;;;;;;;27.00;38.60;;;26.13;36.76;101373.06;12255588;19;20356;-81
2023/06/10 08:13:27;;;;;;;;;;;27.10;38.50;;;26.27;36.75;101377.72;12257016;19;19915;-80
2023/06/10 08:17:30;;;;;;;;;;;27.20;38.80;;;26.37;36.62;101370.31;12255685;19;19919;-81
2023/06/10 08:21:31;;;;;;;;;;;27.40;39.20;;;26.52;36.54;101383.88;12248743;19;19927;-82
2023/06/10 08:25:33;;;;;;;;;;;27.50;37.50;;;26.59;36.28;101375.97;12251795;19;19915;-82
2023/06/10 08:29:35;;;;;;;;;;;27.50;38.70;;;26.61;36.40;101363.25;12251823;19;20387;-81
2023/06/10 08:33:37;;;;;;;;;;;27.60;37.60;;;26.85;36.45;101383.72;12251527;19;19922;-80
2023/06/10 08:37:38;;;;;;;;;;;27.80;37.60;;;26.96;36.50;101379.81;12253162;19;20125;-82
2023/06/10 08:41:48;;;;;;;;;;;27.90;38.50;;;27.11;36.37;101376.22;12245693;19;20192;-80
2023/06/10 08:45:51;;;;;;;;;;;28.10;38.30;;;27.24;36.42;101385.53;12252162;19;19926;-82
2023/06/10 08:49:53;;;;;;;;;;;28.20;37.50;;;27.21;36.02;101362.56;12250273;19;19919;-82
2023/06/10 08:54:06;;;;;;;;;;;28.30;37.60;;;27.43;36.38;101385.03;12253035;19;19903;-83
2023/06/10 08:58:08;;;;;;;;;;;28.40;37.70;;;27.64;36.04;101389.75;12260322;19;19919;-82
2023/06/10 09:02:09;;;;;;;;;;;28.50;38.00;;;27.75;36.16;101393.84;12250625;19;19926;-83
2023/06/10 09:06:11;;;;;;;;;;;28.70;37.50;;;27.83;36.16;101375.00;12254520;19;19970;-83
2023/06/10 09:10:13;;;;;;;;;;;28.80;37.40;;;28.01;36.18;101390.78;12250755;19;19926;-82
2023/06/10 09:14:16;;;;;;;;;;;28.90;37.20;;;28.14;36.17;101382.94;12250338;19;20272;-82
2023/06/10 09:18:18;;;;;;;;;;;29.10;37.00;;;28.21;36.14;101378.47;12249757;19;19919;-83
2023/06/10 09:22:19;;;;;;;;;;;29.20;36.90;;;28.42;36.03;101384.97;12248530;19;19977;-82
2023/06/10 09:26:27;;;;;;;;;;;29.30;36.60;;;28.57;35.48;101395.72;12250524;19;19907;-82
2023/06/10 09:30:31;;;;;;;;;;;29.40;36.30;;;28.73;35.71;101381.25;12251786;19;19921;-82
2023/06/10 09:34:32;;;;;;;;;;;29.60;36.00;;;28.84;35.70;101380.75;12247232;19;19911;-83
2023/06/10 09:38:35;;;;;;;;;;;29.70;35.50;;;28.98;35.52;101390.66;12261585;19;19923;-82
2023/06/10 09:42:39;;;;;;;;;;;29.80;35.80;;;29.03;35.33;101374.78;12251148;19;19925;-81
2023/06/10 09:46:41;;;;;;;;;;;30.00;35.80;;;29.25;35.02;101380.22;12247248;19;19915;-82
2023/06/10 09:50:44;;;;;;;;;;;30.10;35.60;;;29.30;35.16;101358.91;12247252;19;20263;-83
2023/06/10 09:54:46;;;;;;;;;;;30.30;35.60;;;29.56;35.00;101371.78;12247508;19;19923;-82
2023/06/10 09:58:52;;;;;;;;;;;30.40;34.90;;;29.71;35.01;101379.84;12250225;19;20365;-82
2023/06/10 10:02:54;;;;;;;;;;;30.60;35.50;;;29.81;34.87;101380.31;12246125;19;19935;-82
2023/06/10 10:06:55;;;;;;;;;;;30.70;35.50;;;29.93;34.53;101384.13;12249425;19;20333;-83
2023/06/10 10:10:58;;;;;;;;;;;30.90;35.50;;;29.97;34.69;101392.63;12244945;19;19921;-82
2023/06/10 10:14:59;;;;;;;;;;;30.90;34.50;;;29.96;34.25;101393.69;12239961;19;20701;-82
2023/06/10 10:19:06;;;;;;;;;;;30.90;34.60;;;29.98;34.56;101403.22;12246239;19;19907;-84
2023/06/10 10:23:10;;;;;;;;;;;30.90;33.80;;;29.89;34.33;101392.78;12242559;19;19923;-82
2023/06/10 10:27:17;;;;;;;;;;;30.90;34.70;;;29.90;34.15;101387.22;12247069;19;19915;-82
2023/06/10 10:31:19;;;;;;;;;;;30.80;34.80;;;29.95;34.47;101384.78;12240256;19;19915;-83
2023/06/10 10:35:24;;;;;;;;;;;30.90;34.90;;;30.02;34.17;101373.19;12244744;19;20278;-82
2023/06/10 10:39:28;;;;;;;;;;;30.90;34.70;;;30.15;34.18;101375.97;12243105;19;20261;-82
2023/06/10 10:43:30;;;;;;;;;;;30.90;34.60;;;30.24;33.88;101373.97;12242146;19;19974;-81
2023/06/10 10:47:33;;;;;;;;;;;31.00;34.40;;;30.32;34.10;101363.88;12246737;19;19940;-81
2023/06/10 10:51:35;;;;;;;;;;;31.10;34.40;;;30.40;33.58;101374.47;12241065;19;20266;-82
2023/06/10 10:55:37;;;;;;;;;;;31.20;34.30;;;30.43;33.83;101362.47;12264663;19;19934;-83
2023/06/10 11:00:00;;;;;;;;;;;31.30;33.70;;;30.62;34.01;101366.28;12258023;19;19926;-81
2023/06/10 11:04:06;;;;;;;;;;;31.30;34.00;;;30.68;33.88;101364.63;12259386;19;19922;-83
2023/06/10 11:08:08;;;;;;;;;;;31.50;33.80;;;30.69;33.53;101361.75;12258152;19;19994;-81
2023/06/10 11:12:10;;;;;;;;;;;31.50;33.90;;;30.66;33.35;101351.38;12261274;19;19923;-83
2023/06/10 11:16:19;;;;;;;;;;;31.50;33.60;;;30.73;33.33;101365.72;12262470;19;19923;-83
2023/06/10 11:20:45;;;;;;;;;;;31.50;33.90;;;30.85;33.31;101363.28;12256468;19;20258;-82
2023/06/10 11:24:50;;;;;;;;;;;31.60;33.80;;;30.95;33.18;101362.91;12257374;19;19926;-82
2023/06/10 11:28:54;;;;;;;;;;;31.70;33.20;;;31.07;33.38;101366.66;12256112;19;19923;-84
2023/06/10 11:32:56;;;;;;;;;;;31.80;33.30;;;30.99;33.02;101347.97;12248136;19;19910;-83
2023/06/10 11:36:59;;;;;;;;;;;31.90;33.10;;;31.15;32.96;101354.84;12254625;19;19931;-83
2023/06/10 11:41:02;;;;;;;;;;;31.90;31.90;;;31.16;32.60;101359.19;12246007;19;19939;-85
2023/06/10 11:45:08;;;;;;;;;;;31.90;33.10;;;31.16;32.48;101361.91;12254262;19;19919;-84
2023/06/10 11:49:09;;;;;;;;;;;31.90;32.90;;;31.15;32.75;101352.16;12251237;19;20258;-83
2023/06/10 11:53:11;;;;;;;;;;;32.00;33.30;;;31.18;32.50;101339.06;12252999;19;19934;-83
2023/06/10 11:57:13;;;;;;;;;;;32.00;33.40;;;31.33;32.72;101346.16;12254267;19;19922;-84
2023/06/10 12:01:20;;;;;;;;;;;32.00;33.20;;;31.23;32.71;101320.38;12256660;19;19911;-84
2023/06/10 12:05:22;;;;;;;;;;;32.10;33.30;;;31.43;32.67;101342.03;12254013;19;20351;-82
2023/06/10 12:09:28;;;;;;;;;;;32.10;32.60;;;31.40;32.23;101336.22;12255385;19;20595;-83
2023/06/10 12:13:30;;;;;;;;;;;32.10;32.70;;;31.41;32.31;101340.59;12249538;19;19986;-84
2023/06/10 12:17:31;;;;;;;;;;;32.10;32.90;;;31.44;32.40;101332.88;12253273;19;19915;-82
2023/06/10 12:21:35;;;;;;;;;;;32.10;32.60;;;31.38;32.05;101333.72;12251516;19;19919;-81
2023/06/10 12:25:36;;;;;;;;;;;32.10;33.00;;;31.29;32.04;101314.16;12256757;19;19923;-85
2023/06/10 12:29:38;;;;;;;;;;;32.10;33.80;;;31.41;32.27;101329.78;12254082;19;19990;-82
2023/06/10 12:33:41;;;;;;;;;;;32.10;33.10;;;31.51;32.36;101332.88;12247918;19;19919;-83
2023/06/10 12:37:54;;;;;;;;;;;32.20;33.00;;;31.56;31.94;101330.38;12253332;19;19929;-83
2023/06/10 12:41:56;;;;;;;;;;;32.20;32.70;;;31.44;32.08;101300.50;12251111;19;20330;-84
2023/06/10 12:46:09;;;;;;;;;;;32.20;33.10;;;31.50;31.65;101320.44;12253321;19;19926;-84
2023/06/10 12:50:11;;;;;;;;;;;32.20;32.10;;;31.37;31.93;101309.63;12254829;19;19923;-83
2023/06/10 12:54:13;;;;;;;;;;;32.10;31.80;;;31.39;31.53;101311.09;12254168;19;19971;-83
2023/06/10 12:58:15;;;;;;;;;;;32.10;31.60;;;31.34;31.19;101291.94;12258291;19;19918;-83
2023/06/10 13:02:16;;;;;;;;;;;32.10;30.70;;;31.43;31.23;101298.00;12256878;19;19915;-83
2023/06/10 13:06:20;;;;;;;;;;;32.10;31.20;;;31.52;31.39;101280.56;12256428;19;19944;-83
2023/06/10 13:10:21;;;;;;;;;;;32.20;32.10;;;31.65;31.14;101291.34;12257006;19;19935;-83
2023/06/10 13:14:23;;;;;;;;;;;32.30;30.40;;;31.80;31.22;101290.25;12255336;19;19933;-83
2023/06/10 13:18:25;;;;;;;;;;;32.40;32.30;;;31.94;31.07;101292.72;12254918;19;19923;-83
2023/06/10 13:22:27;;;;;;;;;;;32.50;31.00;;;32.00;31.03;101288.38;12255437;19;19919;-83
2023/06/10 13:26:29;;;;;;;;;;;32.70;31.20;;;32.04;31.22;101281.50;12255731;19;19919;-84
2023/06/10 13:30:30;;;;;;;;;;;32.80;30.20;;;32.15;30.55;101280.00;12254390;19;19923;-83
2023/06/10 13:34:32;;;;;;;;;;;32.80;29.90;;;32.22;30.64;101279.94;12252788;19;19919;-83
2023/06/10 13:38:33;;;;;;;;;;;32.80;29.20;;;32.11;30.34;101257.16;12252385;19;19910;-83
2023/06/10 13:42:36;;;;;;;;;;;32.90;30.30;;;32.21;30.12;101278.31;12251389;19;20238;-83
2023/06/10 13:46:37;;;;;;;;;;;32.90;30.80;;;32.25;30.29;101272.25;12252233;19;19922;-84
2023/06/10 13:50:38;;;;;;;;;;;32.90;30.90;;;32.29;30.37;101259.13;12250432;19;19926;-84
2023/06/10 13:54:40;;;;;;;;;;;33.00;30.30;;;32.31;29.82;101267.88;12246581;19;20305;-83
2023/06/10 13:58:42;;;;;;;;;;;33.00;30.30;;;32.35;29.91;101272.63;12238732;19;19915;-82
2023/06/10 14:02:44;;;;;;;;;;;33.00;29.80;;;32.40;29.90;101272.78;12244012;19;19927;-83
2023/06/10 14:06:46;;;;;;;;;;;33.10;31.00;;;32.37;29.67;101261.59;12245989;19;19931;-84
2023/06/10 14:10:48;;;;;;;;;;;33.10;30.00;;;32.35;29.78;101267.22;12246621;19;19937;-83
2023/06/10 14:14:49;;;;;;;;;;;33.10;31.10;;;32.33;29.84;101266.59;12242978;19;19988;-82
2023/06/10 14:18:51;;;;;;;;;;;33.00;30.40;;;32.39;29.66;101270.31;12248461;19;19923;-83
2023/06/10 14:22:52;;;;;;;;;;;33.00;30.60;;;32.42;29.51;101286.09;12246291;19;19915;-83
2023/06/10 14:26:53;;;;;;;;;;;33.00;30.10;;;32.43;29.59;101282.34;12243666;19;20318;-81
2023/06/10 14:30:57;;;;;;;;;;;33.00;29.60;;;32.42;29.80;101274.47;12255692;19;19911;-83
2023/06/10 14:34:58;;;;;;;;;;;33.00;30.20;;;32.37;29.60;101262.41;12251541;19;19911;-82
2023/06/10 14:39:00;;;;;;;;;;;33.10;30.20;;;32.51;29.61;101268.59;12256770;19;20355;-82
2023/06/10 14:43:04;;;;;;;;;;;33.10;30.70;;;32.62;29.46;101264.38;12252634;19;19922;-83
2023/06/10 14:47:05;;;;;;;;;;;33.10;31.30;;;32.67;29.35;101258.31;12257281;19;19922;-82
2023/06/10 14:51:07;;;;;;;;;;;33.30;30.60;;;32.74;29.25;101248.31;12254447;19;19923;-82
2023/06/10 14:55:08;;;;;;;;;;;33.30;30.40;;;32.74;29.37;101261.81;12253497;19;19925;-82
2023/06/10 14:59:10;;;;;;;;;;;33.40;31.00;;;32.68;29.04;101257.28;12256449;19;20256;-81
2023/06/10 15:03:11;;;;;;;;;;;33.30;31.10;;;32.61;29.34;101250.03;12251790;19;19910;-83
2023/06/10 15:07:15;;;;;;;;;;;33.20;29.00;;;32.56;29.33;101252.56;12255906;19;19927;-81
2023/06/10 15:11:17;;;;;;;;;;;33.20;29.90;;;32.52;29.11;101261.34;12251495;19;20578;-83
2023/06/10 15:15:18;;;;;;;;;;;33.20;30.00;;;32.49;28.96;101256.38;12250836;19;19982;-83
2023/06/10 15:19:20;;;;;;;;;;;33.10;28.70;;;32.44;28.77;101261.56;12250256;19;19929;-81
2023/06/10 15:23:21;;;;;;;;;;;33.10;30.00;;;32.44;28.64;101270.50;12252087;19;19907;-82
2023/06/10 15:27:23;;;;;;;;;;;33.00;29.40;;;32.44;28.73;101254.28;12255784;19;19933;-82
2023/06/10 15:31:24;;;;;;;;;;;33.00;30.00;;;32.45;28.46;101253.22;12251318;19;19939;-83
2023/06/10 15:35:26;;;;;;;;;;;33.00;29.10;;;32.46;28.42;101265.72;12249940;19;20342;-83
2023/06/10 15:39:30;;;;;;;;;;;33.00;28.90;;;32.50;28.37;101275.06;12250725;19;20353;-82
2023/06/10 15:43:31;;;;;;;;;;;33.00;29.40;;;32.48;28.33;101268.22;12252346;19;19957;-82
2023/06/10 15:47:33;;;;;;;;;;;33.10;29.80;;;32.38;28.36;101255.16;12252272;19;19907;-82
2023/06/10 15:51:34;;;;;;;;;;;33.10;29.50;;;32.15;28.43;101231.34;12252644;19;19914;-81
2023/06/10 15:55:35;;;;;;;;;;;33.10;29.20;;;32.26;28.05;101248.75;12249979;19;20409;-83
2023/06/10 15:59:37;;;;;;;;;;;33.00;29.30;;;32.37;28.32;101272.41;12251970;19;19922;-80
2023/06/10 16:03:38;;;;;;;;;;;33.00;29.00;;;32.31;27.96;101267.88;12245446;19;20259;-82
2023/06/10 16:07:40;;;;;;;;;;;32.90;28.20;;;32.21;27.97;101260.22;12250886;19;20368;-82
2023/06/10 16:11:41;;;;;;;;;;;32.90;28.80;;;32.16;27.91;101266.28;12248965;19;19947;-81
2023/06/10 16:15:43;;;;;;;;;;;32.80;29.30;;;32.21;27.78;101273.72;12250141;19;19926;-83
2023/06/10 16:19:44;;;;;;;;;;;32.80;29.70;;;32.24;27.70;101284.09;12250550;19;19915;-83
2023/06/10 16:23:46;;;;;;;;;;;32.80;28.90;;;32.24;28.09;101283.28;12247479;19;20353;-83
2023/06/10 16:27:47;;;;;;;;;;;32.70;29.10;;;32.20;27.96;101282.88;12250840;19;19918;-83
2023/06/10 16:31:49;;;;;;;;;;;32.70;29.00;;;32.14;27.74;101275.66;12248585;19;19919;-83
2023/06/10 16:35:50;;;;;;;;;;;32.70;28.60;;;32.15;27.41;101280.00;12250224;19;19931;-83
2023/06/10 16:39:51;;;;;;;;;;;32.70;28.50;;;32.03;27.31;101271.72;12250441;19;19923;-84
2023/06/10 16:43:53;;;;;;;;;;;32.70;28.50;;;32.00;27.20;101277.56;12247292;19;20253;-83
2023/06/10 16:47:54;;;;;;;;;;;32.60;28.40;;;31.96;27.61;101290.66;12249686;19;19919;-83
2023/06/10 16:51:56;;;;;;;;;;;32.50;29.30;;;31.93;27.58;101282.97;12249135;19;20614;-83
2023/06/10 16:55:57;;;;;;;;;;;32.50;29.10;;;31.89;27.49;101287.13;12248497;19;19930;-83
2023/06/10 16:59:58;;;;;;;;;;;32.40;28.70;;;31.87;27.47;101288.38;12250392;19;19926;-83
2023/06/10 17:04:00;;;;;;;;;;;32.40;28.70;;;31.73;27.03;101288.41;12244928;19;19930;-83
2023/06/10 17:08:01;;;;;;;;;;;32.30;28.40;;;31.72;27.20;101289.44;12249771;19;20404;-82
2023/06/10 17:12:03;;;;;;;;;;;32.30;28.30;;;31.70;27.32;101294.25;12246602;19;19923;-83
2023/06/10 17:16:05;;;;;;;;;;;32.20;28.90;;;31.63;27.29;101300.69;12249164;19;19911;-83
2023/06/10 17:20:07;;;;;;;;;;;32.10;28.10;;;31.56;27.19;101297.16;12248577;19;19923;-83
2023/06/10 17:24:08;;;;;;;;;;;32.00;27.80;;;31.44;26.88;101294.28;12244894;19;19945;-83
2023/06/10 17:28:10;;;;;;;;;;;32.00;29.00;;;31.33;26.79;101297.56;12248106;19;19944;-82
2023/06/10 17:32:11;;;;;;;;;;;31.90;28.10;;;31.24;27.00;101303.16;12247134;19;20387;-84
2023/06/10 17:36:13;;;;;;;;;;;31.90;28.80;;;31.09;26.93;101286.34;12246576;19;20308;-83
2023/06/10 17:40:14;;;;;;;;;;;31.80;29.20;;;30.92;27.10;101283.22;12246755;19;19910;-82
2023/06/10 17:44:16;;;;;;;;;;;31.60;28.80;;;30.96;26.91;101297.13;12243715;19;19915;-82
2023/06/10 17:48:17;;;;;;;;;;;31.50;29.10;;;30.97;27.07;101317.66;12247160;19;19945;-84
2023/06/10 17:52:18;;;;;;;;;;;31.50;29.40;;;30.92;26.69;101317.44;12247159;19;19915;-82
2023/06/10 17:56:20;;;;;;;;;;;31.40;29.10;;;30.80;26.84;101326.13;12248739;19;20278;-82
2023/06/10 18:00:23;;;;;;;;;;;31.30;29.10;;;30.81;26.84;101326.97;12247330;19;19926;-83
2023/06/10 18:04:25;;;;;;;;;;;31.30;29.50;;;30.77;27.11;101331.91;12246106;19;19918;-84
2023/06/10 18:08:28;;;;;;;;;;;31.20;29.50;;;30.74;26.77;101331.50;12258098;19;20369;-84
2023/06/10 18:12:29;;;;;;;;;;;31.20;29.60;;;30.70;26.78;101336.44;12255070;19;19990;-84